createdAt,value
2023-01-09T00:01:55.804Z,96262.31
2023-01-09T00:04:26.090Z,96252.31
2023-01-09T00:06:56.678Z,96250.88
2023-01-09T00:09:27.884Z,96254.38
2023-01-09T00:11:58.203Z,96265.66
2023-01-09T00:14:31.136Z,96252.63
2023-01-09T00:17:01.478Z,96248.81
2023-01-09T00:19:31.902Z,96247.56
2023-01-09T00:22:02.279Z,96245.84
2023-01-09T00:24:32.693Z,96238.53
2023-01-09T00:27:03.138Z,96240.03
2023-01-09T00:29:36.172Z,96223.44
2023-01-09T00:32:10.167Z,96228.22
2023-01-09T00:34:43.056Z,96229.47
2023-01-09T00:37:14.468Z,96217.72
2023-01-09T00:39:46.125Z,96221.00
2023-01-09T00:42:22.247Z,96217.22
2023-01-09T00:45:00.376Z,96213.72
2023-01-09T00:47:36.549Z,96213.72
2023-01-09T00:50:13.182Z,96206.47
2023-01-09T00:52:44.385Z,96205.72
2023-01-09T00:55:16.023Z,96191.91
2023-01-09T00:57:46.447Z,96192.41
2023-01-09T01:00:21.177Z,96187.44
2023-01-09T01:02:51.473Z,96176.88
2023-01-09T01:05:34.289Z,96176.91
2023-01-09T01:08:04.603Z,96174.16
2023-01-09T01:10:34.866Z,96177.41
2023-01-09T01:13:06.388Z,96164.66
2023-01-09T01:15:41.775Z,96187.22
2023-01-09T01:18:12.823Z,96177.44
2023-01-09T01:20:43.456Z,96159.38
2023-01-09T01:23:13.928Z,96164.91
2023-01-09T01:25:45.608Z,96159.88
2023-01-09T01:28:16.005Z,96179.69
2023-01-09T01:30:48.995Z,96168.34
2023-01-09T01:33:19.339Z,96147.03
2023-01-09T01:35:49.608Z,96152.25
2023-01-09T01:38:19.976Z,96157.00
2023-01-09T01:40:56.451Z,96168.47
2023-01-09T01:43:26.954Z,96154.13
2023-01-09T01:45:59.950Z,96169.09
2023-01-09T01:48:33.434Z,96159.94
2023-01-09T01:51:07.403Z,96148.34
2023-01-09T01:53:41.592Z,96161.31
2023-01-09T01:56:18.758Z,96153.72
2023-01-09T01:58:51.978Z,96153.22
2023-01-09T02:01:27.338Z,96144.41
2023-01-09T02:04:00.866Z,96155.91
2023-01-09T02:06:32.761Z,96159.66
2023-01-09T02:09:03.842Z,96151.59
2023-01-09T02:11:34.142Z,96158.28
2023-01-09T02:14:05.733Z,96156.75
2023-01-09T02:16:48.944Z,96141.41
2023-01-09T02:19:53.712Z,96141.50
2023-01-09T02:22:39.521Z,96146.91
2023-01-09T02:25:51.450Z,96131.78
2023-01-09T02:28:54.580Z,96125.38
2023-01-09T02:31:36.478Z,96124.38
2023-01-09T02:34:18.164Z,96122.91
2023-01-09T02:36:57.769Z,96120.91
2023-01-09T02:39:36.864Z,96111.66
2023-01-09T02:42:14.299Z,96102.91
2023-01-09T02:44:45.197Z,96112.16
2023-01-09T02:47:44.118Z,96106.44
2023-01-09T02:50:20.707Z,96104.41
2023-01-09T02:53:28.079Z,96094.16
2023-01-09T02:56:34.799Z,96098.47
2023-01-09T02:59:28.928Z,96081.75
2023-01-09T03:02:16.349Z,96086.72
2023-01-09T03:05:02.961Z,96080.72
2023-01-09T03:07:40.889Z,96072.78
2023-01-09T03:10:19.041Z,96072.59
2023-01-09T03:12:54.429Z,96064.09
2023-01-09T03:15:29.416Z,96072.91
2023-01-09T03:18:01.558Z,96071.06
2023-01-09T03:20:35.839Z,96063.78
2023-01-09T03:23:09.230Z,96066.72
2023-01-09T03:25:39.624Z,96067.22
2023-01-09T03:28:20.780Z,96061.00
2023-01-09T03:30:51.201Z,96055.00
2023-01-09T03:33:21.552Z,96049.06
2023-01-09T03:35:54.884Z,96042.84
2023-01-09T03:38:25.195Z,96047.88
2023-01-09T03:40:55.513Z,96043.63
2023-01-09T03:43:25.820Z,96042.13
2023-01-09T03:45:56.174Z,96045.66
2023-01-09T03:48:26.484Z,96046.88
2023-01-09T03:51:00.125Z,96029.38
2023-01-09T03:53:31.881Z,96029.84
2023-01-09T03:56:02.225Z,96032.34
2023-01-09T03:58:32.495Z,96031.09
2023-01-09T04:01:05.087Z,96025.31
2023-01-09T04:03:35.569Z,96023.78
2023-01-09T04:06:09.885Z,96016.56
2023-01-09T04:08:40.149Z,96015.31
2023-01-09T04:11:10.472Z,96014.06
2023-01-09T04:13:40.852Z,96015.38
2023-01-09T04:16:11.589Z,96015.91
2023-01-09T04:18:42.015Z,96014.94
2023-01-09T04:21:14.992Z,96013.47
2023-01-09T04:23:45.586Z,96009.47
2023-01-09T04:26:15.979Z,96011.72
2023-01-09T04:28:46.263Z,96013.50
2023-01-09T04:31:16.893Z,96019.97
2023-01-09T04:33:47.260Z,96014.22
2023-01-09T04:36:20.139Z,96015.97
2023-01-09T04:38:50.776Z,96005.72
2023-01-09T04:41:33.296Z,96001.22
2023-01-09T04:44:03.566Z,96002.47
2023-01-09T04:46:33.827Z,96008.47
2023-01-09T04:49:04.115Z,96005.97
2023-01-09T04:51:36.993Z,95994.94
2023-01-09T04:54:08.342Z,96009.19
2023-01-09T04:56:39.080Z,96004.66
2023-01-09T04:59:10.285Z,96004.16
2023-01-09T05:01:40.693Z,96007.41
2023-01-09T05:04:11.337Z,96002.91
2023-01-09T05:06:44.317Z,96002.38
2023-01-09T05:09:14.702Z,95999.16
2023-01-09T05:11:45.087Z,96012.34
2023-01-09T05:14:15.678Z,96006.81
2023-01-09T05:16:46.079Z,96019.56
2023-01-09T05:19:16.485Z,96014.34
2023-01-09T05:21:49.427Z,96016.03
2023-01-09T05:24:19.719Z,96013.03
2023-01-09T05:26:50.015Z,96003.00
2023-01-09T05:29:20.331Z,96001.47
2023-01-09T05:31:52.867Z,95987.72
2023-01-09T05:34:23.327Z,95986.75
2023-01-09T05:36:56.367Z,95994.53
2023-01-09T05:39:26.982Z,95996.31
2023-01-09T05:41:57.407Z,95990.81
2023-01-09T05:44:27.797Z,95985.03
2023-01-09T05:46:58.219Z,95988.06
2023-01-09T05:49:28.674Z,95978.50
2023-01-09T05:52:01.644Z,95977.75
2023-01-09T05:54:32.032Z,95974.25
2023-01-09T05:57:02.456Z,95967.03
2023-01-09T05:59:32.816Z,95979.06
2023-01-09T06:02:03.449Z,95966.53
2023-01-09T06:04:33.986Z,95976.81
2023-01-09T06:07:07.091Z,95981.81
2023-01-09T06:09:37.409Z,95989.31
2023-01-09T06:12:08.309Z,95989.09
2023-01-09T06:14:38.773Z,95989.88
2023-01-09T06:17:10.214Z,95990.63
2023-01-09T06:19:40.534Z,96003.19
2023-01-09T06:22:13.444Z,96018.22
2023-01-09T06:24:43.757Z,96003.97
2023-01-09T06:27:14.556Z,96008.78
2023-01-09T06:29:45.158Z,96005.28
2023-01-09T06:32:15.616Z,96003.50
2023-01-09T06:34:45.945Z,96005.50
2023-01-09T06:37:18.848Z,96010.06
2023-01-09T06:39:49.138Z,96006.25
2023-01-09T06:42:19.480Z,96012.25
2023-01-09T06:44:49.783Z,96012.53
2023-01-09T06:47:20.153Z,96009.25
2023-01-09T06:49:50.564Z,96012.00
2023-01-09T06:52:23.431Z,96022.53
2023-01-09T06:54:53.704Z,96031.31
2023-01-09T06:57:24.036Z,96033.06
2023-01-09T06:59:54.336Z,96021.31
2023-01-09T07:02:25.608Z,96029.81
2023-01-09T07:04:55.725Z,96026.03
2023-01-09T07:07:28.694Z,96017.22
2023-01-09T07:09:58.994Z,96037.06
2023-01-09T07:12:29.262Z,96022.03
2023-01-09T07:14:59.603Z,96033.06
2023-01-09T07:17:30.087Z,96037.09
2023-01-09T07:20:00.737Z,96046.34
2023-01-09T07:22:33.730Z,96051.38
2023-01-09T07:25:04.017Z,96056.63
2023-01-09T07:27:34.369Z,96053.22
2023-01-09T07:30:05.049Z,96057.97
2023-01-09T07:32:35.711Z,96058.19
2023-01-09T07:35:06.120Z,96072.22
2023-01-09T07:37:39.120Z,96085.00
2023-01-09T07:40:11.939Z,96084.78
2023-01-09T07:42:42.438Z,96075.72
2023-01-09T07:45:14.445Z,96082.22
2023-01-09T07:47:44.979Z,96092.78
2023-01-09T07:50:15.497Z,96097.31
2023-01-09T07:52:50.359Z,96102.56
2023-01-09T07:55:20.727Z,96091.53
2023-01-09T07:57:52.948Z,96091.06
2023-01-09T08:00:24.350Z,96098.34
2023-01-09T08:02:55.843Z,96093.09
2023-01-09T08:05:26.370Z,96092.13
2023-01-09T08:07:59.377Z,96099.88
2023-01-09T08:10:29.701Z,96102.66
2023-01-09T08:12:59.987Z,96106.69
2023-01-09T08:15:30.946Z,96112.72
2023-01-09T08:18:01.705Z,96114.97
2023-01-09T08:20:32.069Z,96115.47
2023-01-09T08:23:05.101Z,96120.72
2023-01-09T08:25:35.401Z,96125.50
2023-01-09T08:28:05.674Z,96119.25
2023-01-09T08:30:35.976Z,96133.03
2023-01-09T08:33:06.447Z,96137.56
2023-01-09T08:35:37.231Z,96129.56
2023-01-09T08:38:10.183Z,96138.81
2023-01-09T08:40:41.034Z,96144.59
2023-01-09T08:43:25.098Z,96148.88
2023-01-09T08:46:07.772Z,96141.34
2023-01-09T08:48:38.821Z,96147.06
2023-01-09T08:51:09.521Z,96152.88
2023-01-09T08:53:42.574Z,96156.63
2023-01-09T08:56:13.072Z,96161.91
2023-01-09T08:58:45.300Z,96168.19
2023-01-09T09:01:15.635Z,96162.88
2023-01-09T09:03:46.523Z,96159.66
2023-01-09T09:06:16.969Z,96161.16
2023-01-09T09:08:51.413Z,96159.91
2023-01-09T09:11:21.746Z,96156.41
2023-01-09T09:13:52.120Z,96159.44
2023-01-09T09:16:22.565Z,96169.72
2023-01-09T09:18:53.032Z,96166.19
2023-01-09T09:21:23.397Z,96167.44
2023-01-09T09:23:58.088Z,96179.50
2023-01-09T09:26:28.445Z,96182.28
2023-01-09T09:28:59.193Z,96177.75
2023-01-09T09:31:29.680Z,96179.25
2023-01-09T09:34:00.248Z,96178.50
2023-01-09T09:36:32.310Z,96185.06
2023-01-09T09:39:07.451Z,96188.56
2023-01-09T09:42:20.037Z,96200.59
2023-01-09T09:45:13.414Z,96203.13
2023-01-09T09:47:55.621Z,96199.59
2023-01-09T09:51:15.599Z,96204.38
2023-01-09T09:53:52.052Z,96206.88
2023-01-09T09:56:27.020Z,96212.88
2023-01-09T09:59:04.328Z,96225.69
2023-01-09T10:01:44.005Z,96232.44
2023-01-09T10:04:20.045Z,96235.66
2023-01-09T10:06:54.902Z,96247.16
2023-01-09T10:09:40.045Z,96229.34
2023-01-09T10:12:30.551Z,96244.41
2023-01-09T10:15:03.081Z,96249.91
2023-01-09T10:17:56.235Z,96252.94
2023-01-09T10:21:00.014Z,96257.00
2023-01-09T10:24:12.886Z,96246.47
2023-01-09T10:26:49.645Z,96260.03
2023-01-09T10:29:53.260Z,96261.75
2023-01-09T10:32:37.273Z,96241.47
2023-01-09T10:35:54.384Z,96251.81
2023-01-09T10:38:30.295Z,96260.84
2023-01-09T10:41:06.297Z,96251.06
2023-01-09T10:43:45.402Z,96261.91
2023-01-09T10:46:25.258Z,96267.66
2023-01-09T10:49:02.949Z,96260.38
2023-01-09T10:51:40.368Z,96275.50
2023-01-09T10:54:18.550Z,96279.53
2023-01-09T10:57:00.532Z,96270.47
2023-01-09T10:59:31.230Z,96274.69
2023-01-09T11:02:06.206Z,96269.44
2023-01-09T11:04:40.868Z,96271.44
2023-01-09T11:07:21.949Z,96295.53
2023-01-09T11:10:04.138Z,96293.25
2023-01-09T11:12:36.380Z,96294.75
2023-01-09T11:15:29.547Z,96295.72
2023-01-09T11:18:27.346Z,96300.22
2023-01-09T11:20:57.722Z,96297.94
2023-01-09T11:23:34.543Z,96297.19
2023-01-09T11:26:05.679Z,96296.66
2023-01-09T11:28:35.708Z,96279.91
2023-01-09T11:31:06.464Z,96284.75
2023-01-09T11:33:43.827Z,96278.69
2023-01-09T11:36:19.240Z,96284.97
2023-01-09T11:38:53.382Z,96287.25
2023-01-09T11:41:31.699Z,96272.22
2023-01-09T11:44:03.809Z,96273.22
2023-01-09T11:46:39.652Z,96283.78
2023-01-09T11:49:27.717Z,96291.06
2023-01-09T11:52:21.066Z,96298.59
2023-01-09T11:54:56.485Z,96294.34
2023-01-09T11:57:27.905Z,96303.28
2023-01-09T12:00:04.676Z,96299.88
2023-01-09T12:03:02.800Z,96288.50
2023-01-09T12:05:48.237Z,96292.28
2023-01-09T12:08:38.978Z,96291.63
2023-01-09T12:11:31.897Z,96300.31
2023-01-09T12:14:45.507Z,96296.78
2023-01-09T12:17:59.337Z,96299.00
2023-01-09T12:20:47.772Z,96301.09
2023-01-09T12:23:44.177Z,96298.38
2023-01-09T12:26:22.560Z,96304.63
2023-01-09T12:29:13.608Z,96308.69
2023-01-09T12:32:01.869Z,96300.13
2023-01-09T12:35:01.069Z,96309.94
2023-01-09T12:38:02.625Z,96317.69
2023-01-09T12:41:10.499Z,96326.00
2023-01-09T12:43:49.049Z,96329.78
2023-01-09T12:46:22.878Z,96334.53
2023-01-09T12:49:25.203Z,96331.28
2023-01-09T12:52:04.675Z,96336.81
2023-01-09T12:54:46.024Z,96337.03
2023-01-09T12:57:24.786Z,96335.50
2023-01-09T13:00:00.570Z,96331.47
2023-01-09T13:02:37.650Z,96347.25
2023-01-09T13:05:18.703Z,96356.47
2023-01-09T13:07:54.156Z,96342.44
2023-01-09T13:10:33.684Z,96350.25
2023-01-09T13:13:13.591Z,96361.03
2023-01-09T13:15:48.971Z,96359.81
2023-01-09T13:18:30.705Z,96362.31
2023-01-09T13:21:01.372Z,96368.84
2023-01-09T13:23:38.804Z,96365.81
2023-01-09T13:26:17.976Z,96374.34
2023-01-09T13:28:53.960Z,96362.00
2023-01-09T13:32:07.741Z,96373.63
2023-01-09T13:34:40.140Z,96373.16
2023-01-09T13:37:26.365Z,96371.38
2023-01-09T13:40:01.794Z,96370.88
2023-01-09T13:42:39.903Z,96377.16
2023-01-09T13:45:25.636Z,96380.44
2023-01-09T13:48:32.137Z,96379.91
2023-01-09T13:52:00.024Z,96382.91
2023-01-09T13:55:28.848Z,96384.44
2023-01-09T13:58:32.600Z,96389.75
2023-01-09T14:01:06.147Z,96398.75
2023-01-09T14:03:39.437Z,96407.00
2023-01-09T14:06:20.418Z,96408.94
2023-01-09T14:09:22.561Z,96413.00
2023-01-09T14:12:06.808Z,96435.25
2023-01-09T14:14:43.558Z,96426.66
2023-01-09T14:17:20.822Z,96423.38
2023-01-09T14:19:59.568Z,96423.28
2023-01-09T14:22:42.360Z,96430.50
2023-01-09T14:25:27.880Z,96429.94
2023-01-09T14:28:20.951Z,96434.19
2023-01-09T14:31:13.101Z,96433.22
2023-01-09T14:33:43.382Z,96423.41
2023-01-09T14:36:19.633Z,96452.25
2023-01-09T14:38:52.485Z,96450.78
2023-01-09T14:41:40.334Z,96445.50
2023-01-09T14:44:27.198Z,96443.03
2023-01-09T14:47:06.707Z,96446.34
2023-01-09T14:49:44.999Z,96445.25
2023-01-09T14:52:25.097Z,96457.81
2023-01-09T14:55:00.387Z,96454.94
2023-01-09T14:57:34.155Z,96469.00
2023-01-09T15:00:09.549Z,96471.44
2023-01-09T15:02:44.061Z,96471.91
2023-01-09T15:05:18.306Z,96472.13
2023-01-09T15:07:56.519Z,96464.31
2023-01-09T15:10:31.892Z,96465.59
2023-01-09T15:13:05.278Z,96469.84
2023-01-09T15:15:35.601Z,96472.06
2023-01-09T15:18:11.801Z,96473.53
2023-01-09T15:20:42.165Z,96475.16
2023-01-09T15:23:25.858Z,96475.88
2023-01-09T15:25:56.620Z,96473.06
2023-01-09T15:28:32.200Z,96479.97
2023-01-09T15:31:12.786Z,96475.28
2023-01-09T15:33:48.312Z,96473.97
2023-01-09T15:36:23.967Z,96477.25
2023-01-09T15:38:55.854Z,96477.50
2023-01-09T15:41:42.072Z,96478.25
2023-01-09T15:44:18.960Z,96481.56
2023-01-09T15:46:51.928Z,96487.00
2023-01-09T15:49:24.963Z,96499.59
2023-01-09T15:51:56.387Z,96503.31
2023-01-09T15:54:32.787Z,96507.31
2023-01-09T15:57:35.736Z,96512.34
2023-01-09T16:00:45.583Z,96511.09
2023-01-09T16:03:24.155Z,96509.84
2023-01-09T16:06:05.599Z,96521.28
2023-01-09T16:08:40.014Z,96519.56
2023-01-09T16:11:19.783Z,96513.50
2023-01-09T16:13:50.511Z,96518.69
2023-01-09T16:16:31.121Z,96518.06
2023-01-09T16:19:02.222Z,96526.16
2023-01-09T16:21:40.184Z,96527.13
2023-01-09T16:24:28.973Z,96530.72
2023-01-09T16:27:26.158Z,96534.16
2023-01-09T16:29:58.754Z,96536.16
2023-01-09T16:32:32.734Z,96540.56
2023-01-09T16:35:06.194Z,96543.72
2023-01-09T16:37:39.463Z,96532.09
2023-01-09T16:40:27.663Z,96529.34
2023-01-09T16:43:00.925Z,96527.59
2023-01-09T16:45:35.597Z,96531.81
2023-01-09T16:48:14.492Z,96543.22
2023-01-09T16:50:45.506Z,96540.81
2023-01-09T16:53:22.252Z,96549.31
2023-01-09T16:55:53.433Z,96553.72
2023-01-09T16:58:28.299Z,96557.44
2023-01-09T17:00:59.110Z,96560.94
2023-01-09T17:03:29.784Z,96552.81
2023-01-09T17:06:03.766Z,96563.91
2023-01-09T17:08:38.977Z,96561.44
2023-01-09T17:11:09.447Z,96564.59
2023-01-09T17:13:39.897Z,96564.59
2023-01-09T17:16:13.741Z,96577.16
2023-01-09T17:18:44.445Z,96587.16
2023-01-09T17:21:21.882Z,96591.31
2023-01-09T17:24:14.867Z,96601.91
2023-01-09T17:27:00.994Z,96596.41
2023-01-09T17:29:32.378Z,96611.09
2023-01-09T17:32:02.792Z,96612.16
2023-01-09T17:34:34.465Z,96610.34
2023-01-09T17:37:04.944Z,96618.31
2023-01-09T17:39:38.004Z,96623.44
2023-01-09T17:42:08.430Z,96621.75
2023-01-09T17:44:38.888Z,96628.13
2023-01-09T17:47:09.846Z,96626.88
2023-01-09T17:49:41.890Z,96625.84
2023-01-09T17:52:12.258Z,96629.56
2023-01-09T17:54:45.205Z,96641.00
2023-01-09T17:57:18.980Z,96632.84
2023-01-09T17:59:49.272Z,96633.72
2023-01-09T18:02:21.822Z,96632.06
2023-01-09T18:04:52.201Z,96633.69
2023-01-09T18:07:22.553Z,96641.47
2023-01-09T18:09:55.536Z,96640.91
2023-01-09T18:12:25.978Z,96648.88
2023-01-09T18:14:57.169Z,96646.41
2023-01-09T18:17:27.190Z,96642.78
2023-01-09T18:20:00.236Z,96643.00
2023-01-09T18:22:30.566Z,96642.78
2023-01-09T18:25:03.575Z,96656.38
2023-01-09T18:27:35.055Z,96645.81
2023-01-09T18:30:05.755Z,96646.22
2023-01-09T18:32:36.621Z,96651.63
2023-01-09T18:35:08.965Z,96651.13
2023-01-09T18:37:39.579Z,96644.13
2023-01-09T18:40:14.665Z,96643.66
2023-01-09T18:42:46.311Z,96653.03
2023-01-09T18:45:16.653Z,96648.59
2023-01-09T18:47:46.924Z,96653.22
2023-01-09T18:50:17.389Z,96654.31
2023-01-09T18:52:50.903Z,96661.97
2023-01-09T18:55:24.720Z,96658.97
2023-01-09T18:57:55.197Z,96664.56
2023-01-09T19:00:25.765Z,96667.13
2023-01-09T19:02:56.173Z,96660.84
2023-01-09T19:05:27.675Z,96663.59
2023-01-09T19:07:57.982Z,96652.59
2023-01-09T19:10:30.875Z,96658.00
2023-01-09T19:13:01.221Z,96660.56
2023-01-09T19:15:31.529Z,96656.38
2023-01-09T19:18:01.793Z,96656.38
2023-01-09T19:20:32.079Z,96665.16
2023-01-09T19:23:02.465Z,96677.59
2023-01-09T19:25:35.400Z,96677.31
2023-01-09T19:28:05.973Z,96691.94
2023-01-09T19:30:37.502Z,96698.81
2023-01-09T19:33:08.129Z,96705.38
2023-01-09T19:35:38.528Z,96715.50
2023-01-09T19:38:09.103Z,96709.72
2023-01-09T19:40:42.121Z,96719.19
2023-01-09T19:43:25.832Z,96722.91
2023-01-09T19:45:57.032Z,96723.97
2023-01-09T19:48:29.037Z,96721.53
2023-01-09T19:51:04.263Z,96737.00
2023-01-09T19:53:35.375Z,96737.28
2023-01-09T19:56:19.462Z,96742.78
2023-01-09T19:58:52.991Z,96739.75
2023-01-09T20:01:26.401Z,96742.63
2023-01-09T20:04:02.925Z,96736.25
2023-01-09T20:06:34.363Z,96749.44
2023-01-09T20:09:07.793Z,96742.63
2023-01-09T20:11:42.267Z,96748.97
2023-01-09T20:14:15.119Z,96766.25
2023-01-09T20:16:47.650Z,96762.91
2023-01-09T20:19:19.122Z,96766.72
2023-01-09T20:21:51.066Z,96775.06
2023-01-09T20:24:21.301Z,96773.25
2023-01-09T20:26:54.296Z,96789.41
2023-01-09T20:29:24.905Z,96789.75
2023-01-09T20:31:56.121Z,96793.31
2023-01-09T20:34:26.469Z,96796.06
2023-01-09T20:36:57.473Z,96795.97
2023-01-09T20:39:27.796Z,96801.38
2023-01-09T20:42:00.705Z,96796.72
2023-01-09T20:44:30.964Z,96801.75
2023-01-09T20:47:01.238Z,96806.78
2023-01-09T20:49:31.584Z,96811.72
2023-01-09T20:52:01.905Z,96815.50
2023-01-09T20:54:32.890Z,96815.50
2023-01-09T20:57:05.903Z,96823.03
2023-01-09T20:59:36.266Z,96825.38
2023-01-09T21:02:06.879Z,96826.34
2023-01-09T21:04:37.245Z,96826.63
2023-01-09T21:07:09.378Z,96839.75
2023-01-09T21:09:39.804Z,96847.69
2023-01-09T21:12:27.164Z,96839.84
2023-01-09T21:15:02.079Z,96851.84
2023-01-09T21:17:33.324Z,96856.97
2023-01-09T21:20:03.865Z,96853.94
2023-01-09T21:22:36.710Z,96866.38
2023-01-09T21:25:08.878Z,96870.81
2023-01-09T21:27:45.979Z,96872.44
2023-01-09T21:30:16.824Z,96888.50
2023-01-09T21:32:47.179Z,96886.50
2023-01-09T21:35:17.572Z,96892.78
2023-01-09T21:37:47.891Z,96888.00
2023-01-09T21:40:19.371Z,96897.03
2023-01-09T21:43:04.671Z,96906.84
2023-01-09T21:45:47.383Z,96917.28
2023-01-09T21:48:17.664Z,96914.94
2023-01-09T21:50:48.006Z,96917.38
2023-01-09T21:53:18.540Z,96915.16
2023-01-09T21:55:48.872Z,96928.91
2023-01-09T21:58:21.871Z,96925.69
2023-01-09T22:00:52.252Z,96932.50
2023-01-09T22:03:22.661Z,96930.38
2023-01-09T22:05:52.981Z,96937.84
2023-01-09T22:08:23.338Z,96945.13
2023-01-09T22:11:01.402Z,96947.19
2023-01-09T22:13:34.476Z,96953.97
2023-01-09T22:16:11.122Z,96959.19
2023-01-09T22:18:41.352Z,96964.28
2023-01-09T22:21:11.945Z,96971.97
2023-01-09T22:23:42.379Z,96965.34
2023-01-09T22:26:15.504Z,96969.19
2023-01-09T22:28:50.054Z,96972.53
2023-01-09T22:31:25.235Z,96974.72
2023-01-09T22:33:57.788Z,96992.56
2023-01-09T22:36:31.182Z,96987.25
2023-01-09T22:39:03.087Z,96994.72
2023-01-09T22:41:33.775Z,96991.97
2023-01-09T22:44:06.946Z,96997.97
2023-01-09T22:46:37.440Z,96999.81
2023-01-09T22:49:08.169Z,96995.50
2023-01-09T22:51:38.530Z,96994.84
2023-01-09T22:54:09.219Z,96998.72
2023-01-09T22:56:39.571Z,97003.44
2023-01-09T22:59:12.700Z,97012.03
2023-01-09T23:01:43.037Z,97011.25
2023-01-09T23:04:16.741Z,97019.38
2023-01-09T23:06:47.336Z,97013.25
2023-01-09T23:09:17.686Z,97015.41
2023-01-09T23:12:11.995Z,97011.59
2023-01-09T23:14:44.865Z,97012.53
2023-01-09T23:17:15.217Z,97014.78
2023-01-09T23:19:45.487Z,97012.03
2023-01-09T23:22:15.871Z,97002.22
2023-01-09T23:24:46.299Z,97012.78
2023-01-09T23:27:16.655Z,97016.63
2023-01-09T23:29:49.567Z,97024.31
2023-01-09T23:32:19.850Z,97021.84
2023-01-09T23:34:50.189Z,97017.06
2023-01-09T23:37:20.479Z,97024.75
2023-01-09T23:39:50.770Z,97023.84
2023-01-09T23:42:33.490Z,97029.34
2023-01-09T23:45:07.318Z,97033.31
2023-01-09T23:47:37.612Z,97040.22
2023-01-09T23:50:09.228Z,97032.84
2023-01-09T23:52:39.607Z,97034.22
2023-01-09T23:55:11.197Z,97038.50
2023-01-09T23:57:41.606Z,97046.00
